Airfield :







YOU CAN JOIN US ON...

 
LOGIN :

Register | Disclaimer

   EN    FR    IT 

 









Legend :    VFR   Marginal VFR   IFR   Intensive IFR   Very Intensive IFR
Visi :
Ceiling :
>= 8 km
>= 3000ft
5 to 8 km
1000 to 3000 ft
1500m to 5 km
500 to 1000 ft
800 to 1500m
200 to 500 ft
< 800m
< 200 ft
Symbols :   Thunderstorms  Fog  Heavy snow  Heavy precipitations  Wind > 20 kt






- Airport Elevation : 20 ft
- IATA code : BOS


KBOS - General Edward Lawrence Logan International

CURRENT METAR :
  • 271432Z 12010KT 10SM SCT010 BKN044 BKN095 09/07 A2917 RMK AO2 RAE21 PRESFR P0002 T00940072

EXPIRED METARs :
  • 271415Z 13009KT 3SM -RA SCT006 OVC013 09/07 A2921 RMK AO2 SFC VIS 7 PRESFR P0002 T00890067
  • 271403Z 13009KT 3SM -RA BR BKN007 BKN012 OVC017 08/06 A2924 RMK AO2 SFC VIS 4 PRESFR P0000 T00830061
  • 271354Z 13010KT 1 1/2SM -RA BR OVC007 08/06 A2925 RMK AO2 SFC VIS 4 SLP905 P0006 T00780061
  • 271254Z 12021KT 1 1/2SM -RA OVC006 08/06 A2929 RMK AO2 PK WND 12027/1235 SFC VIS 2 1/2 SLP919 P0005 T00830056
  • 271232Z 11020KT 1 1/2SM -RA BR OVC005 08/06 A2929 RMK AO2 PK WND 12027/1212 SFC VIS 2 1/2 PRESFR P0003 T00780056
  • 271154Z 11021KT 1 1/2SM -RA BR OVC004 07/05 A2934 RMK AO2 PK WND 10029/1133 SLP936 P0010 60062 70062 T00720050 10078 20067 56083

TAF KBOS
Valid from the 27 at 12:00 until the 28 at 18:00 UTC


271142Z 2712/2818 10016G22KT 3SM -RA BR OVC003
FM271300 16019G28KT 1SM -RA BR OVC003
FM271400 19019G32KT 2SM BR VCSH OVC008
FM271500 21019G31KT P6SM OVC015
FM271600 23019G30KT P6SM BKN035
FM280000 26019G32KT P6SM SCT060



MET'MAP, your aeronautical weather chart ! - Copyright ORBIFLY December 2007 - Disclaimer

ORBIFLY MET'MAP TEAM :

Programming & Development : Alexandra Zaïnal
Concept & original design : Baudouin d'Aumeries
Assistance for programming : Marc-Olivier Méhu
Technical & hardware support : Manuel Goepfert

Contact : metmap@orbifly.com




SOURCES & CREDITS :

   NOAA